SUD1A MHTG-SKPS
Flight info
| Callsign | SUD1A |
|---|---|
| Flight time | N/A |
| Altitude | 35000 |
| Route | LIBIS UA502 ULAPO/N0465F340 UA502 POXON/N0465F350 DCT VAPUK DCT PAKEX PAKEX1A |
| Aircraft | A320/M-SDFGHILORVWY/S |
Departure
| Time | 2026-05-06 10:48 |
|---|---|
| Airport | Toncontín Airport (MHTG) |
Arrival
| Time | N/A |
|---|---|
| Airport | Antonio Nariño Airport (SKPS) |
| Time | Latitude | Longitude | Altitude | Speed | Heading |
|---|---|---|---|---|---|
| 2026-05-06 10:26 | 14.05977 | -87.21892 | 3275 ft | 0 kts | 288° |
| 2026-05-06 10:41 | 14.05973 | -87.21878 | 3277 ft | 3 kts | 264° |
| 2026-05-06 10:41 | 14.05975 | -87.21868 | 3277 ft | 3 kts | 190° |
| 2026-05-06 10:41 | 14.05990 | -87.21868 | 3275 ft | 2 kts | 161° |
| 2026-05-06 10:41 | 14.05991 | -87.21869 | 3275 ft | 0 kts | 160° |
| 2026-05-06 10:44 | 14.05983 | -87.21866 | 3274 ft | 3 kts | 160° |
| 2026-05-06 10:44 | 14.05977 | -87.21864 | 3276 ft | 1 kts | 160° |
| 2026-05-06 10:44 | 14.05954 | -87.21859 | 3278 ft | 5 kts | 177° |
| 2026-05-06 10:44 | 14.05910 | -87.21870 | 3283 ft | 8 kts | 200° |
| 2026-05-06 10:45 | 14.05843 | -87.21895 | 3287 ft | 12 kts | 199° |
| 2026-05-06 10:45 | 14.05745 | -87.21928 | 3290 ft | 17 kts | 198° |
| 2026-05-06 10:45 | 14.05631 | -87.21968 | 3295 ft | 17 kts | 200° |
| 2026-05-06 10:45 | 14.05520 | -87.22009 | 3300 ft | 17 kts | 198° |
| 2026-05-06 10:46 | 14.05401 | -87.22050 | 3303 ft | 19 kts | 195° |
| 2026-05-06 10:46 | 14.05291 | -87.22016 | 3307 ft | 16 kts | 148° |
| 2026-05-06 10:46 | 14.05188 | -87.22008 | 3309 ft | 14 kts | 189° |
| 2026-05-06 10:46 | 14.05199 | -87.22042 | 3310 ft | 6 kts | 8° |
| 2026-05-06 10:47 | 14.05232 | -87.22021 | 3308 ft | 6 kts | 18° |
| 2026-05-06 10:47 | 14.05360 | -87.21976 | 3305 ft | 50 kts | 19° |
| 2026-05-06 10:47 | 14.05955 | -87.21766 | 3278 ft | 128 kts | 19° |
| 2026-05-06 10:47 | 14.07006 | -87.21398 | 3287 ft | 184 kts | 18° |
| 2026-05-06 10:48 | 14.08222 | -87.21016 | 4027 ft | 183 kts | 11° |
| 2026-05-06 10:48 | 14.09060 | -87.20897 | 4605 ft | 185 kts | 5° |
| 2026-05-06 10:48 | 14.10358 | -87.20837 | 5219 ft | 193 kts | 2° |
| 2026-05-06 10:48 | 14.11778 | -87.20807 | 5332 ft | 215 kts | 2° |
| 2026-05-06 10:49 | 14.13346 | -87.20770 | 5434 ft | 238 kts | 3° |
| 2026-05-06 10:49 | 14.15107 | -87.20740 | 5532 ft | 267 kts | 0° |
| 2026-05-06 10:49 | 14.17018 | -87.20783 | 6023 ft | 278 kts | 359° |
| 2026-05-06 10:49 | 14.18964 | -87.20801 | 6758 ft | 281 kts | 3° |
| 2026-05-06 10:50 | 14.20923 | -87.20679 | 7420 ft | 284 kts | 6° |
| 2026-05-06 10:50 | 14.22907 | -87.20494 | 8054 ft | 288 kts | 7° |
| 2026-05-06 10:50 | 14.24912 | -87.20272 | 8719 ft | 291 kts | 8° |
| 2026-05-06 10:50 | 14.26933 | -87.20033 | 9404 ft | 293 kts | 9° |
| 2026-05-06 10:51 | 14.28966 | -87.19778 | 10073 ft | 295 kts | 9° |
| 2026-05-06 10:51 | 14.31011 | -87.19312 | 10305 ft | 310 kts | 26° |
| 2026-05-06 10:51 | 14.32852 | -87.18069 | 10422 ft | 326 kts | 44° |
| 2026-05-06 10:51 | 14.34405 | -87.16291 | 10542 ft | 342 kts | 55° |
| 2026-05-06 10:52 | 14.35652 | -87.14157 | 10844 ft | 351 kts | 66° |
| 2026-05-06 10:52 | 14.36593 | -87.11813 | 11336 ft | 356 kts | 69° |
| 2026-05-06 10:52 | 14.37518 | -87.09433 | 11883 ft | 359 kts | 69° |
| 2026-05-06 10:52 | 14.38414 | -87.07020 | 12419 ft | 361 kts | 73° |
| 2026-05-06 10:53 | 14.38843 | -87.04471 | 12926 ft | 364 kts | 91° |
| 2026-05-06 10:53 | 14.38391 | -87.01904 | 13430 ft | 367 kts | 109° |
| 2026-05-06 10:53 | 14.37214 | -86.99561 | 13963 ft | 371 kts | 123° |
| 2026-05-06 10:53 | 14.35503 | -86.97559 | 14400 ft | 376 kts | 137° |
| 2026-05-06 10:54 | 14.33460 | -86.95863 | 14853 ft | 379 kts | 139° |
| 2026-05-06 10:54 | 14.31392 | -86.94159 | 15284 ft | 382 kts | 139° |
| 2026-05-06 10:54 | 14.29312 | -86.92441 | 15718 ft | 385 kts | 139° |
| 2026-05-06 10:54 | 14.27217 | -86.90708 | 16149 ft | 388 kts | 139° |
| 2026-05-06 10:55 | 14.25105 | -86.88964 | 16592 ft | 390 kts | 139° |
| 2026-05-06 10:55 | 14.22962 | -86.87235 | 17021 ft | 394 kts | 143° |
| 2026-05-06 10:55 | 14.20500 | -86.85949 | 17443 ft | 402 kts | 159° |
| 2026-05-06 10:55 | 14.17730 | -86.85410 | 17865 ft | 410 kts | 175° |
| 2026-05-06 10:56 | 14.14864 | -86.85716 | 18259 ft | 420 kts | 192° |
| 2026-05-06 10:56 | 14.12158 | -86.86907 | 18605 ft | 429 kts | 211° |
| 2026-05-06 10:56 | 14.09743 | -86.88736 | 18953 ft | 433 kts | 216° |
| 2026-05-06 10:56 | 14.07344 | -86.90627 | 19340 ft | 435 kts | 216° |
| 2026-05-06 10:57 | 14.04933 | -86.92530 | 19702 ft | 438 kts | 216° |
| 2026-05-06 10:57 | 14.02510 | -86.94441 | 20078 ft | 440 kts | 216° |
| 2026-05-06 10:57 | 14.00074 | -86.96358 | 20445 ft | 442 kts | 216° |
| 2026-05-06 10:57 | 13.97623 | -86.98282 | 20800 ft | 444 kts | 215° |
| 2026-05-06 10:58 | 13.95155 | -87.00214 | 21147 ft | 447 kts | 215° |
| 2026-05-06 10:58 | 13.92673 | -87.02153 | 21499 ft | 449 kts | 215° |
| 2026-05-06 10:58 | 13.90181 | -87.04099 | 21817 ft | 451 kts | 215° |
| 2026-05-06 10:58 | 13.87676 | -87.06056 | 22151 ft | 453 kts | 215° |